SKW3842 KLAX-KSJC
Flight info
| Callsign | SKW3842 |
|---|---|
| Flight time | 0h 49m |
| Altitude | 32000 |
| Route | SUMMR2 SCTRR TROXX SILCN6 |
| Aircraft | E75L/M-SDE3GILORVW/S |
Departure
| Time | 2026-05-05 03:30 |
|---|---|
| Airport | Los Angeles International Airport (KLAX) |
Arrival
| Time | 2026-05-05 04:19 |
|---|---|
| Airport | Norman Y. Mineta San Jose International Airport (KSJC) |
| Time | Latitude | Longitude | Altitude | Speed | Heading |
|---|---|---|---|---|---|
| 2026-05-05 03:05 | 33.94653 | -118.40477 | 90 ft | 0 kts | 96° |
| 2026-05-05 03:19 | 33.94653 | -118.40482 | 90 ft | 3 kts | 80° |
| 2026-05-05 03:19 | 33.94649 | -118.40510 | 90 ft | 3 kts | 83° |
| 2026-05-05 03:20 | 33.94644 | -118.40537 | 91 ft | 3 kts | 59° |
| 2026-05-05 03:20 | 33.94633 | -118.40546 | 90 ft | 1 kts | 353° |
| 2026-05-05 03:20 | 33.94629 | -118.40545 | 90 ft | 0 kts | 344° |
| 2026-05-05 03:24 | 33.94626 | -118.40544 | 90 ft | 1 kts | 323° |
| 2026-05-05 03:25 | 33.94624 | -118.40542 | 90 ft | 0 kts | 312° |
| 2026-05-05 03:26 | 33.94625 | -118.40543 | 90 ft | 0 kts | 310° |
| 2026-05-05 03:26 | 33.94636 | -118.40553 | 92 ft | 6 kts | 332° |
| 2026-05-05 03:27 | 33.94717 | -118.40575 | 91 ft | 17 kts | 355° |
| 2026-05-05 03:27 | 33.94840 | -118.40600 | 92 ft | 15 kts | 6° |
| 2026-05-05 03:27 | 33.94875 | -118.40483 | 92 ft | 20 kts | 83° |
| 2026-05-05 03:27 | 33.94892 | -118.40310 | 92 ft | 22 kts | 82° |
| 2026-05-05 03:28 | 33.94911 | -118.40124 | 91 ft | 23 kts | 84° |
| 2026-05-05 03:28 | 33.94939 | -118.39942 | 91 ft | 19 kts | 58° |
| 2026-05-05 03:28 | 33.95027 | -118.39921 | 91 ft | 10 kts | 329° |
| 2026-05-05 03:28 | 33.95041 | -118.39959 | 92 ft | 0 kts | 262° |
| 2026-05-05 03:29 | 33.95018 | -118.40183 | 97 ft | 67 kts | 263° |
| 2026-05-05 03:29 | 33.94926 | -118.41073 | 95 ft | 145 kts | 263° |
| 2026-05-05 03:30 | 33.94789 | -118.42476 | 510 ft | 184 kts | 261° |
| 2026-05-05 03:30 | 33.94597 | -118.43998 | 1798 ft | 177 kts | 260° |
| 2026-05-05 03:30 | 33.94381 | -118.45416 | 3243 ft | 170 kts | 258° |
| 2026-05-05 03:30 | 33.94132 | -118.46862 | 3843 ft | 190 kts | 258° |
| 2026-05-05 03:31 | 33.94093 | -118.48512 | 4481 ft | 198 kts | 271° |
| 2026-05-05 03:31 | 33.94126 | -118.50201 | 5167 ft | 204 kts | 269° |
| 2026-05-05 03:31 | 33.94086 | -118.51916 | 5938 ft | 202 kts | 265° |
| 2026-05-05 03:31 | 33.93968 | -118.53616 | 6636 ft | 206 kts | 264° |
| 2026-05-05 03:32 | 33.93842 | -118.55353 | 7216 ft | 209 kts | 263° |
| 2026-05-05 03:32 | 33.93713 | -118.57096 | 7851 ft | 210 kts | 263° |
| 2026-05-05 03:32 | 33.93579 | -118.58854 | 8435 ft | 212 kts | 263° |
| 2026-05-05 03:32 | 33.93443 | -118.60633 | 9044 ft | 214 kts | 262° |
| 2026-05-05 03:33 | 33.93303 | -118.62432 | 9636 ft | 217 kts | 262° |
| 2026-05-05 03:33 | 33.93158 | -118.64275 | 9980 ft | 233 kts | 262° |
| 2026-05-05 03:33 | 33.93003 | -118.66288 | 10552 ft | 240 kts | 263° |
| 2026-05-05 03:33 | 33.92853 | -118.68281 | 11562 ft | 237 kts | 263° |
| 2026-05-05 03:34 | 33.92702 | -118.70240 | 12616 ft | 233 kts | 263° |
| 2026-05-05 03:34 | 33.92552 | -118.72189 | 13619 ft | 234 kts | 263° |
| 2026-05-05 03:34 | 33.92399 | -118.74143 | 14515 ft | 238 kts | 263° |
| 2026-05-05 03:34 | 33.92236 | -118.76224 | 15001 ft | 259 kts | 263° |
| 2026-05-05 03:35 | 33.92061 | -118.78456 | 15593 ft | 276 kts | 263° |
| 2026-05-05 03:35 | 33.91876 | -118.80805 | 16198 ft | 292 kts | 262° |
| 2026-05-05 03:35 | 33.91678 | -118.83317 | 16746 ft | 308 kts | 262° |
| 2026-05-05 03:35 | 33.91630 | -118.85963 | 17309 ft | 324 kts | 270° |
| 2026-05-05 03:36 | 33.91768 | -118.88709 | 18102 ft | 331 kts | 270° |
| 2026-05-05 03:36 | 33.91876 | -118.91492 | 18935 ft | 334 kts | 269° |
| 2026-05-05 03:36 | 33.91976 | -118.94295 | 19818 ft | 336 kts | 269° |
| 2026-05-05 03:36 | 33.92070 | -118.97108 | 20670 ft | 338 kts | 269° |
| 2026-05-05 03:37 | 33.92185 | -118.99942 | 21441 ft | 341 kts | 272° |
| 2026-05-05 03:37 | 33.92845 | -119.02724 | 22145 ft | 354 kts | 291° |
| 2026-05-05 03:37 | 33.94080 | -119.05314 | 22854 ft | 359 kts | 296° |
| 2026-05-05 03:37 | 33.95412 | -119.07913 | 23034 ft | 367 kts | 296° |
| 2026-05-05 03:38 | 33.96748 | -119.10472 | 23043 ft | 365 kts | 296° |
| 2026-05-05 03:38 | 33.98092 | -119.13056 | 23046 ft | 364 kts | 296° |
| 2026-05-05 03:38 | 33.99432 | -119.15634 | 23048 ft | 363 kts | 296° |
| 2026-05-05 03:38 | 34.00846 | -119.18158 | 23048 ft | 367 kts | 304° |
| 2026-05-05 03:39 | 34.02785 | -119.20218 | 23076 ft | 377 kts | 318° |
| 2026-05-05 03:39 | 34.04933 | -119.22041 | 23089 ft | 378 kts | 319° |
| 2026-05-05 03:39 | 34.07081 | -119.23870 | 23062 ft | 378 kts | 319° |
| 2026-05-05 03:39 | 34.09224 | -119.25701 | 23058 ft | 377 kts | 319° |
| 2026-05-05 03:40 | 34.11353 | -119.27525 | 23487 ft | 371 kts | 319° |
| 2026-05-05 03:40 | 34.13454 | -119.29342 | 24210 ft | 373 kts | 317° |
| 2026-05-05 03:40 | 34.15572 | -119.31177 | 24801 ft | 377 kts | 317° |
| 2026-05-05 03:40 | 34.17718 | -119.33035 | 25370 ft | 382 kts | 317° |
| 2026-05-05 03:41 | 34.19893 | -119.34917 | 25900 ft | 387 kts | 317° |
| 2026-05-05 03:41 | 34.22099 | -119.36824 | 26420 ft | 392 kts | 317° |
| 2026-05-05 03:41 | 34.24332 | -119.38755 | 26919 ft | 397 kts | 317° |
| 2026-05-05 03:41 | 34.26597 | -119.40711 | 27393 ft | 403 kts | 317° |
| 2026-05-05 03:42 | 34.28889 | -119.42691 | 27856 ft | 408 kts | 317° |
| 2026-05-05 03:42 | 34.31214 | -119.44698 | 28302 ft | 413 kts | 316° |
| 2026-05-05 03:42 | 34.33563 | -119.46727 | 28742 ft | 417 kts | 316° |
| 2026-05-05 03:42 | 34.35940 | -119.48781 | 29165 ft | 422 kts | 316° |
| 2026-05-05 03:43 | 34.38342 | -119.50855 | 29599 ft | 426 kts | 316° |
| 2026-05-05 03:43 | 34.40766 | -119.52949 | 30052 ft | 430 kts | 317° |
| 2026-05-05 03:43 | 34.43170 | -119.55103 | 30511 ft | 428 kts | 315° |
| 2026-05-05 03:43 | 34.45522 | -119.57344 | 30865 ft | 432 kts | 315° |
| 2026-05-05 03:44 | 34.47897 | -119.59595 | 31234 ft | 435 kts | 315° |
| 2026-05-05 03:44 | 34.50288 | -119.61861 | 31554 ft | 438 kts | 315° |
| 2026-05-05 03:44 | 34.52699 | -119.64141 | 31901 ft | 440 kts | 315° |
| 2026-05-05 03:44 | 34.55130 | -119.66436 | 32054 ft | 448 kts | 315° |
| 2026-05-05 03:45 | 34.60128 | -119.71173 | 32083 ft | 461 kts | 315° |
| 2026-05-05 03:45 | 34.65217 | -119.75987 | 32054 ft | 465 kts | 315° |
| 2026-05-05 03:46 | 34.70323 | -119.80827 | 32034 ft | 465 kts | 315° |
| 2026-05-05 03:46 | 34.75387 | -119.85635 | 32039 ft | 463 kts | 317° |
| 2026-05-05 03:47 | 34.80502 | -119.90496 | 32029 ft | 463 kts | 317° |
| 2026-05-05 03:47 | 34.85537 | -119.95303 | 32050 ft | 464 kts | 317° |
| 2026-05-05 03:48 | 34.90616 | -120.00159 | 32043 ft | 464 kts | 317° |
| 2026-05-05 03:48 | 34.95693 | -120.05015 | 32057 ft | 464 kts | 317° |
| 2026-05-05 03:49 | 35.00773 | -120.09876 | 32061 ft | 464 kts | 317° |
| 2026-05-05 03:49 | 35.05844 | -120.14738 | 32062 ft | 463 kts | 318° |
| 2026-05-05 03:50 | 35.10904 | -120.19598 | 32067 ft | 463 kts | 319° |
| 2026-05-05 03:50 | 35.15971 | -120.24470 | 32056 ft | 464 kts | 318° |
| 2026-05-05 03:51 | 35.21102 | -120.29259 | 32062 ft | 465 kts | 320° |
| 2026-05-05 03:51 | 35.26284 | -120.33978 | 32051 ft | 464 kts | 320° |
| 2026-05-05 03:52 | 35.31460 | -120.38710 | 32054 ft | 465 kts | 321° |
| 2026-05-05 03:52 | 35.36627 | -120.43444 | 32056 ft | 463 kts | 321° |
| 2026-05-05 03:53 | 35.40915 | -120.47381 | 32051 ft | 463 kts | 321° |
| 2026-05-05 03:53 | 35.46071 | -120.52123 | 32051 ft | 463 kts | 321° |
| 2026-05-05 03:54 | 35.51230 | -120.56878 | 32054 ft | 464 kts | 322° |
| 2026-05-05 03:54 | 35.56508 | -120.61313 | 32056 ft | 456 kts | 327° |
| 2026-05-05 03:55 | 35.61879 | -120.65445 | 32055 ft | 455 kts | 326° |
| 2026-05-05 03:55 | 35.67230 | -120.69612 | 32058 ft | 456 kts | 328° |
| 2026-05-05 03:56 | 35.72582 | -120.73796 | 32055 ft | 456 kts | 328° |
| 2026-05-05 03:56 | 35.77926 | -120.77990 | 32052 ft | 456 kts | 327° |
| 2026-05-05 03:57 | 35.83270 | -120.82196 | 32055 ft | 456 kts | 328° |
| 2026-05-05 03:57 | 35.88601 | -120.86398 | 32010 ft | 445 kts | 328° |
| 2026-05-05 03:58 | 35.91160 | -120.88417 | 31950 ft | 429 kts | 328° |
| 2026-05-05 03:58 | 35.93635 | -120.90371 | 31968 ft | 417 kts | 329° |
| 2026-05-05 03:58 | 35.98512 | -120.94219 | 31894 ft | 417 kts | 328° |
| 2026-05-05 03:59 | 36.00964 | -120.96162 | 31439 ft | 420 kts | 330° |
| 2026-05-05 03:59 | 36.03337 | -120.98268 | 30945 ft | 421 kts | 325° |
| 2026-05-05 03:59 | 36.05627 | -121.00511 | 30454 ft | 420 kts | 325° |
| 2026-05-05 03:59 | 36.07920 | -121.02736 | 29967 ft | 419 kts | 326° |
| 2026-05-05 04:00 | 36.10220 | -121.04949 | 29392 ft | 418 kts | 326° |
| 2026-05-05 04:00 | 36.12519 | -121.07156 | 28835 ft | 419 kts | 326° |
| 2026-05-05 04:00 | 36.14825 | -121.09367 | 28317 ft | 419 kts | 325° |
| 2026-05-05 04:00 | 36.17139 | -121.11586 | 27666 ft | 424 kts | 327° |
| 2026-05-05 04:01 | 36.19469 | -121.13817 | 27043 ft | 423 kts | 326° |
| 2026-05-05 04:01 | 36.21781 | -121.16035 | 26427 ft | 418 kts | 326° |
| 2026-05-05 04:01 | 36.24036 | -121.18198 | 25832 ft | 414 kts | 326° |
| 2026-05-05 04:01 | 36.26297 | -121.20372 | 25255 ft | 409 kts | 325° |
| 2026-05-05 04:02 | 36.28528 | -121.22517 | 24669 ft | 404 kts | 325° |
| 2026-05-05 04:02 | 36.30735 | -121.24637 | 24117 ft | 399 kts | 324° |
| 2026-05-05 04:02 | 36.32916 | -121.26733 | 23557 ft | 394 kts | 324° |
| 2026-05-05 04:02 | 36.35068 | -121.28803 | 22879 ft | 389 kts | 324° |
| 2026-05-05 04:03 | 36.37223 | -121.30878 | 22240 ft | 385 kts | 324° |
| 2026-05-05 04:03 | 36.39324 | -121.32903 | 21619 ft | 380 kts | 323° |
| 2026-05-05 04:03 | 36.41374 | -121.34879 | 21052 ft | 376 kts | 323° |
| 2026-05-05 04:03 | 36.43431 | -121.36864 | 20486 ft | 373 kts | 323° |
| 2026-05-05 04:04 | 36.45471 | -121.38833 | 19945 ft | 370 kts | 323° |
| 2026-05-05 04:04 | 36.47491 | -121.40785 | 19402 ft | 367 kts | 324° |
| 2026-05-05 04:04 | 36.49526 | -121.42679 | 18864 ft | 363 kts | 331° |
| 2026-05-05 04:04 | 36.51806 | -121.43956 | 18335 ft | 357 kts | 342° |
| 2026-05-05 04:05 | 36.54156 | -121.44925 | 17760 ft | 355 kts | 343° |
| 2026-05-05 04:05 | 36.56485 | -121.45886 | 17237 ft | 351 kts | 343° |
| 2026-05-05 04:05 | 36.58785 | -121.46844 | 16714 ft | 347 kts | 343° |
| 2026-05-05 04:05 | 36.61063 | -121.47798 | 16198 ft | 344 kts | 343° |
| 2026-05-05 04:06 | 36.63316 | -121.48746 | 15698 ft | 340 kts | 343° |
| 2026-05-05 04:06 | 36.65550 | -121.49689 | 15194 ft | 337 kts | 343° |
| 2026-05-05 04:06 | 36.67759 | -121.50624 | 14710 ft | 333 kts | 343° |
| 2026-05-05 04:06 | 36.69932 | -121.51546 | 14224 ft | 327 kts | 343° |
| 2026-05-05 04:07 | 36.72068 | -121.52454 | 13735 ft | 321 kts | 343° |
| 2026-05-05 04:07 | 36.74167 | -121.53347 | 13197 ft | 316 kts | 343° |
| 2026-05-05 04:07 | 36.76235 | -121.54219 | 12665 ft | 312 kts | 343° |
| 2026-05-05 04:07 | 36.78264 | -121.55086 | 12255 ft | 305 kts | 343° |
| 2026-05-05 04:08 | 36.80251 | -121.55936 | 11848 ft | 299 kts | 343° |
| 2026-05-05 04:08 | 36.82207 | -121.56765 | 11459 ft | 294 kts | 343° |
| 2026-05-05 04:08 | 36.84125 | -121.57580 | 11086 ft | 289 kts | 343° |
| 2026-05-05 04:08 | 36.86015 | -121.58383 | 10710 ft | 286 kts | 343° |
| 2026-05-05 04:09 | 36.87887 | -121.59180 | 10348 ft | 284 kts | 343° |
| 2026-05-05 04:09 | 36.89759 | -121.59977 | 9980 ft | 284 kts | 343° |
| 2026-05-05 04:09 | 36.91632 | -121.60774 | 9592 ft | 284 kts | 343° |
| 2026-05-05 04:09 | 36.93505 | -121.61570 | 9192 ft | 284 kts | 343° |
| 2026-05-05 04:10 | 36.95369 | -121.62363 | 8804 ft | 282 kts | 342° |
| 2026-05-05 04:10 | 36.97226 | -121.63150 | 8417 ft | 282 kts | 342° |
| 2026-05-05 04:10 | 36.99076 | -121.63933 | 8035 ft | 280 kts | 342° |
| 2026-05-05 04:10 | 37.00921 | -121.64715 | 7642 ft | 280 kts | 342° |
| 2026-05-05 04:11 | 37.02759 | -121.65496 | 7285 ft | 279 kts | 342° |
| 2026-05-05 04:11 | 37.04596 | -121.66275 | 6916 ft | 279 kts | 341° |
| 2026-05-05 04:11 | 37.06432 | -121.67053 | 6553 ft | 278 kts | 341° |
| 2026-05-05 04:11 | 37.08265 | -121.67830 | 6166 ft | 278 kts | 341° |
| 2026-05-05 04:12 | 37.10068 | -121.68593 | 5788 ft | 276 kts | 340° |
| 2026-05-05 04:12 | 37.11874 | -121.69365 | 5389 ft | 273 kts | 340° |
| 2026-05-05 04:12 | 37.13652 | -121.70094 | 5134 ft | 265 kts | 346° |
| 2026-05-05 04:12 | 37.15448 | -121.70443 | 4889 ft | 255 kts | 350° |
| 2026-05-05 04:13 | 37.16955 | -121.71386 | 4627 ft | 238 kts | 315° |
| 2026-05-05 04:13 | 37.17985 | -121.72894 | 4419 ft | 217 kts | 310° |
| 2026-05-05 04:13 | 37.19037 | -121.74135 | 4247 ft | 200 kts | 321° |
| 2026-05-05 04:13 | 37.20091 | -121.75186 | 4061 ft | 188 kts | 318° |
| 2026-05-05 04:14 | 37.21036 | -121.76262 | 3856 ft | 181 kts | 316° |
| 2026-05-05 04:14 | 37.21968 | -121.77299 | 3625 ft | 179 kts | 318° |
| 2026-05-05 04:14 | 37.22913 | -121.78314 | 3402 ft | 178 kts | 318° |
| 2026-05-05 04:14 | 37.23837 | -121.79330 | 3146 ft | 175 kts | 318° |
| 2026-05-05 04:15 | 37.24735 | -121.80316 | 2957 ft | 166 kts | 318° |
| 2026-05-05 04:15 | 37.25582 | -121.81242 | 2722 ft | 156 kts | 318° |
| 2026-05-05 04:15 | 37.26373 | -121.82112 | 2500 ft | 147 kts | 318° |
| 2026-05-05 04:15 | 37.27136 | -121.82948 | 2327 ft | 144 kts | 317° |
| 2026-05-05 04:16 | 37.27892 | -121.83777 | 2142 ft | 144 kts | 318° |
| 2026-05-05 04:16 | 37.28642 | -121.84600 | 1940 ft | 144 kts | 318° |
| 2026-05-05 04:16 | 37.29405 | -121.85438 | 1743 ft | 145 kts | 319° |
| 2026-05-05 04:16 | 37.30157 | -121.86263 | 1570 ft | 141 kts | 319° |
| 2026-05-05 04:17 | 37.30886 | -121.87069 | 1365 ft | 136 kts | 319° |
| 2026-05-05 04:17 | 37.31580 | -121.87871 | 1176 ft | 136 kts | 319° |
| 2026-05-05 04:17 | 37.32281 | -121.88660 | 1024 ft | 134 kts | 320° |
| 2026-05-05 04:17 | 37.32994 | -121.89427 | 837 ft | 135 kts | 320° |
| 2026-05-05 04:18 | 37.33691 | -121.90182 | 646 ft | 130 kts | 320° |
| 2026-05-05 04:18 | 37.34369 | -121.90921 | 446 ft | 128 kts | 320° |
| 2026-05-05 04:18 | 37.35042 | -121.91663 | 260 ft | 129 kts | 320° |
| 2026-05-05 04:18 | 37.35718 | -121.92393 | 96 ft | 125 kts | 320° |
| 2026-05-05 04:19 | 37.36313 | -121.93038 | 52 ft | 95 kts | 319° |
| 2026-05-05 04:19 | 37.36677 | -121.93436 | 46 ft | 34 kts | 320° |
| 2026-05-05 04:19 | 37.36816 | -121.93576 | 44 ft | 14 kts | 334° |
| 2026-05-05 04:19 | 37.36902 | -121.93572 | 46 ft | 13 kts | 20° |
| 2026-05-05 04:20 | 37.36968 | -121.93498 | 45 ft | 11 kts | 47° |
| 2026-05-05 04:20 | 37.37025 | -121.93421 | 45 ft | 11 kts | 47° |
| 2026-05-05 04:20 | 37.37039 | -121.93400 | 44 ft | 0 kts | 49° |
| 2026-05-05 04:20 | 37.37041 | -121.93397 | 44 ft | 2 kts | 49° |
| 2026-05-05 04:21 | 37.37069 | -121.93351 | 43 ft | 11 kts | 60° |
| 2026-05-05 04:21 | 37.37044 | -121.93260 | 41 ft | 14 kts | 138° |
| 2026-05-05 04:21 | 37.36961 | -121.93171 | 40 ft | 17 kts | 139° |
| 2026-05-05 04:21 | 37.36872 | -121.93071 | 40 ft | 18 kts | 138° |
| 2026-05-05 04:22 | 37.36800 | -121.92953 | 40 ft | 12 kts | 98° |
| 2026-05-05 04:22 | 37.36818 | -121.92911 | 39 ft | 3 kts | 49° |
| 2026-05-05 04:22 | 37.36824 | -121.92901 | 40 ft | 0 kts | 49° |